Time;durP1;ratioP1;P1;durP2;ratioP2;P2;SDS_P1;SDS_P2;PMS_P1;PMS_P2;Temp;Humidity;BMP_temperature;BMP_pressure;BME280_temperature;BME280_humidity;BME280_pressure;Samples;Min_cycle;Max_cycle;Signal;HPM_P1;HPM_P2
2022/12/03 00:00:06;;;;;;;;;;;;;;;1.04;100.00;102348.56;6215613;23;19990;-79
2022/12/03 00:02:31;;;;;;;;;;;;;;;1.12;100.00;102334.34;6215763;23;19918;-79
2022/12/03 00:04:56;;;;;;;;;;;;;;;1.10;100.00;102340.22;6215653;23;19954;-79
2022/12/03 00:07:21;;;;;;;;;;;;;;;1.14;100.00;102330.16;6215700;23;19912;-79
2022/12/03 00:09:46;;;;;;;;;;;;;;;1.10;100.00;102329.94;6215710;23;19912;-79
2022/12/03 00:12:12;;;;;;;;;;;;;;;1.08;100.00;102331.56;6215946;23;19912;-79
2022/12/03 00:14:37;;;;;;;;;;;;;;;1.08;100.00;102332.47;6215591;23;20042;-79
2022/12/03 00:17:02;;;;;;;;;;;;;;;1.08;100.00;102326.44;6215636;23;19995;-79
2022/12/03 00:19:27;;;;;;;;;;;;;;;1.06;100.00;102328.09;6216046;23;19919;-79
2022/12/03 00:21:52;;;;;;;;;;;;;;;1.06;100.00;102321.25;6214596;23;19919;-78
2022/12/03 00:24:18;;;;;;;;;;;;;;;1.07;100.00;102325.56;6215881;23;20280;-79
2022/12/03 00:26:43;;;;;;;;;;;;;;;1.05;100.00;102318.63;6215750;23;19962;-79
2022/12/03 00:29:08;;;;;;;;;;;;;;;1.06;100.00;102315.25;6215152;23;19912;-79
2022/12/03 00:31:33;;;;;;;;;;;;;;;1.03;100.00;102313.41;6212595;23;19986;-78
2022/12/03 00:33:58;;;;;;;;;;;;;;;1.04;100.00;102310.03;6210499;23;19912;-79
2022/12/03 00:36:24;;;;;;;;;;;;;;;1.06;100.00;102313.53;6214019;23;19943;-79
2022/12/03 00:38:49;;;;;;;;;;;;;;;1.03;100.00;102312.56;6214601;23;20326;-79
2022/12/03 00:41:14;;;;;;;;;;;;;;;1.05;100.00;102306.66;6216035;23;20328;-78
2022/12/03 00:43:39;;;;;;;;;;;;;;;1.14;100.00;102307.03;6214692;23;19912;-79
2022/12/03 00:46:04;;;;;;;;;;;;;;;1.05;100.00;102306.66;6214377;23;20329;-78
2022/12/03 00:48:30;;;;;;;;;;;;;;;1.07;100.00;102304.13;6214707;23;19937;-79
2022/12/03 00:50:55;;;;;;;;;;;;;;;1.07;100.00;102309.28;6213333;23;19946;-79
2022/12/03 00:53:20;;;;;;;;;;;;;;;1.06;100.00;102298.13;6215014;23;19918;-79
2022/12/03 00:55:45;;;;;;;;;;;;;;;1.11;100.00;102306.00;6214987;23;19918;-78
2022/12/03 00:58:10;;;;;;;;;;;;;;;1.06;100.00;102304.97;6215190;23;19963;-78
2022/12/03 01:00:36;;;;;;;;;;;;;;;1.07;100.00;102307.56;6215734;23;19916;-79
2022/12/03 01:03:02;;;;;;;;;;;;;;;1.12;100.00;102307.78;6214893;23;19919;-78
2022/12/03 01:05:27;;;;;;;;;;;;;;;1.06;100.00;102308.41;6215581;23;19919;-78
2022/12/03 01:07:52;;;;;;;;;;;;;;;1.10;100.00;102315.41;6215340;23;19912;-79
2022/12/03 01:10:17;;;;;;;;;;;;;;;1.04;100.00;102311.72;6215146;23;20249;-78
2022/12/03 01:12:42;;;;;;;;;;;;;;;1.08;100.00;102316.16;6215236;23;19912;-78
2022/12/03 01:15:08;;;;;;;;;;;;;;;1.06;100.00;102310.09;6215819;23;20326;-79
2022/12/03 01:17:34;;;;;;;;;;;;;;;1.04;100.00;102314.28;6215256;23;19939;-78
2022/12/03 01:20:00;;;;;;;;;;;;;;;1.04;100.00;102304.88;6215097;23;19912;-79
2022/12/03 01:22:25;;;;;;;;;;;;;;;1.05;100.00;102301.53;6215684;23;19969;-79
2022/12/03 01:24:51;;;;;;;;;;;;;;;1.11;100.00;102301.78;6214429;23;19908;-79
2022/12/03 01:27:16;;;;;;;;;;;;;;;1.05;100.00;102305.78;6215287;23;19912;-78
2022/12/03 01:29:41;;;;;;;;;;;;;;;1.12;100.00;102305.22;6214840;23;20236;-79
2022/12/03 01:32:15;;;;;;;;;;;;;;;1.18;100.00;102310.59;6214884;23;19912;-78
2022/12/03 01:34:45;;;;;;;;;;;;;;;1.08;100.00;102306.78;6214640;23;19919;-79
2022/12/03 01:37:10;;;;;;;;;;;;;;;1.09;100.00;102307.66;6215775;23;19912;-79
2022/12/03 01:39:35;;;;;;;;;;;;;;;1.08;100.00;102306.78;6214878;23;19912;-79
2022/12/03 01:42:01;;;;;;;;;;;;;;;1.09;100.00;102302.53;6214717;23;19911;-79
2022/12/03 01:44:27;;;;;;;;;;;;;;;1.08;100.00;102303.31;6215630;23;20370;-79
2022/12/03 01:46:54;;;;;;;;;;;;;;;1.06;100.00;102298.13;6214170;23;19911;-79
2022/12/03 01:49:20;;;;;;;;;;;;;;;1.08;100.00;102293.03;6215594;23;19911;-79
2022/12/03 01:51:46;;;;;;;;;;;;;;;1.07;100.00;102302.44;6215092;23;19912;-79
2022/12/03 01:54:19;;;;;;;;;;;;;;;1.14;100.00;102291.63;6214723;23;19912;-78
2022/12/03 01:56:45;;;;;;;;;;;;;;;1.08;100.00;102293.94;6214284;23;19916;-79
2022/12/03 01:59:13;;;;;;;;;;;;;;;1.09;100.00;102287.97;6214524;23;19943;-79
2022/12/03 02:01:38;;;;;;;;;;;;;;;1.09;100.00;102294.81;6215109;23;19988;-79
2022/12/03 02:04:03;;;;;;;;;;;;;;;1.06;100.00;102287.84;6214925;23;19920;-78
2022/12/03 02:06:28;;;;;;;;;;;;;;;1.08;100.00;102293.94;6214787;23;19912;-78
2022/12/03 02:08:58;;;;;;;;;;;;;;;1.09;100.00;102290.53;6214307;23;19956;-79
2022/12/03 02:11:28;;;;;;;;;;;;;;;1.07;100.00;102289.59;6215420;23;19912;-78
2022/12/03 02:13:56;;;;;;;;;;;;;;;1.06;100.00;102287.84;6214525;23;19912;-79
2022/12/03 02:16:21;;;;;;;;;;;;;;;1.08;100.00;102293.94;6215107;23;19990;-79
2022/12/03 02:18:47;;;;;;;;;;;;;;;1.09;100.00;102290.53;6214994;23;19912;-78
2022/12/03 02:21:18;;;;;;;;;;;;;;;1.13;100.00;102282.13;6214938;23;20271;-79
2022/12/03 02:23:43;;;;;;;;;;;;;;;1.08;100.00;102286.25;6214400;23;19918;-79
2022/12/03 02:26:08;;;;;;;;;;;;;;;1.06;100.00;102282.72;6215291;23;20291;-78
2022/12/03 02:28:34;;;;;;;;;;;;;;;1.08;100.00;102286.25;6214777;23;19923;-79
2022/12/03 02:30:59;;;;;;;;;;;;;;;1.09;100.00;102277.72;6214132;23;19924;-78
2022/12/03 02:33:24;;;;;;;;;;;;;;;1.06;100.00;102280.16;6214922;23;19912;-79
2022/12/03 02:35:49;;;;;;;;;;;;;;;1.06;100.00;102282.72;6214287;23;19912;-78
2022/12/03 02:38:20;;;;;;;;;;;;;;;1.09;100.00;102279.41;6214567;23;20322;-79
2022/12/03 02:40:46;;;;;;;;;;;;;;;1.09;100.00;102281.97;6214587;23;20380;-79
2022/12/03 02:43:13;;;;;;;;;;;;;;;1.15;100.00;102277.94;6214332;23;19919;-79
2022/12/03 02:45:40;;;;;;;;;;;;;;;1.07;100.00;102276.75;6216135;23;19912;-79
2022/12/03 02:48:08;;;;;;;;;;;;;;;1.09;100.00;102277.72;6217087;23;19912;-79
2022/12/03 02:50:39;;;;;;;;;;;;;;;1.10;100.00;102276.88;6216180;23;19916;-79
2022/12/03 02:53:07;;;;;;;;;;;;;;;1.09;100.00;102272.56;6216948;23;19918;-78
2022/12/03 02:55:33;;;;;;;;;;;;;;;1.07;100.00;102274.19;6216259;23;19966;-79
2022/12/03 02:57:59;;;;;;;;;;;;;;;1.08;100.00;102270.81;6216225;23;19915;-79
2022/12/03 03:00:24;;;;;;;;;;;;;;;1.07;100.00;102273.31;6216573;23;19918;-79
2022/12/03 03:02:50;;;;;;;;;;;;;;;1.08;100.00;102275.06;6215202;23;19912;-79
2022/12/03 03:05:17;;;;;;;;;;;;;;;1.07;100.00;102266.47;6215872;23;19912;-78
2022/12/03 03:07:42;;;;;;;;;;;;;;;1.10;100.00;102278.56;6215528;23;19912;-79
2022/12/03 03:10:10;;;;;;;;;;;;;;;1.09;100.00;102271.69;6215150;23;19919;-79
2022/12/03 03:12:36;;;;;;;;;;;;;;;1.10;100.00;102260.59;6215810;23;19912;-79
2022/12/03 03:15:01;;;;;;;;;;;;;;;1.08;100.00;102268.25;6216150;23;19920;-79
2022/12/03 03:17:26;;;;;;;;;;;;;;;1.09;100.00;102257.16;6215444;23;19919;-79
2022/12/03 03:19:52;;;;;;;;;;;;;;;1.09;100.00;102258.84;6215131;23;19990;-79
2022/12/03 03:22:17;;;;;;;;;;;;;;;1.09;100.00;102257.16;6216460;23;20206;-79
2022/12/03 03:24:42;;;;;;;;;;;;;;;1.10;100.00;102264.03;6215580;23;19966;-79
2022/12/03 03:27:08;;;;;;;;;;;;;;;1.16;100.00;102259.13;6216510;23;19915;-79
2022/12/03 03:29:33;;;;;;;;;;;;;;;1.08;100.00;102252.84;6216232;23;20279;-79
2022/12/03 03:32:00;;;;;;;;;;;;;;;1.09;100.00;102246.88;6215325;23;19947;-79
2022/12/03 03:34:25;;;;;;;;;;;;;;;1.04;100.00;102248.38;6216636;23;19915;-79
2022/12/03 03:36:51;;;;;;;;;;;;;;;1.06;100.00;102246.75;6216096;23;20252;-78
2022/12/03 03:39:16;;;;;;;;;;;;;;;1.06;100.00;102246.75;6214184;23;20327;-78
2022/12/03 03:41:43;;;;;;;;;;;;;;;1.06;100.00;102249.34;6214636;23;19919;-79
2022/12/03 03:44:09;;;;;;;;;;;;;;;1.07;100.00;102251.06;6216544;23;19964;-78
2022/12/03 03:46:34;;;;;;;;;;;;;;;1.06;100.00;102241.63;6215073;23;20362;-78
2022/12/03 03:49:00;;;;;;;;;;;;;;;1.04;100.00;102245.81;6216167;23;20342;-78
2022/12/03 03:51:25;;;;;;;;;;;;;;;1.06;100.00;102240.75;6216412;23;19923;-78
2022/12/03 03:53:51;;;;;;;;;;;;;;;1.03;100.00;102243.22;6215140;23;20316;-79
2022/12/03 03:56:18;;;;;;;;;;;;;;;1.06;100.00;102248.47;6215794;23;20307;-78
2022/12/03 03:58:43;;;;;;;;;;;;;;;1.05;100.00;102245.03;6215122;23;19912;-78
2022/12/03 04:01:09;;;;;;;;;;;;;;;1.06;100.00;102241.63;6216152;23;20209;-78
2022/12/03 04:03:35;;;;;;;;;;;;;;;1.05;100.00;102241.59;6216466;23;19912;-78
2022/12/03 04:06:00;;;;;;;;;;;;;;;1.04;100.00;102243.25;6215294;23;19912;-78
2022/12/03 04:08:25;;;;;;;;;;;;;;;1.05;100.00;102239.03;6216067;23;19923;-78
2022/12/03 04:13:34;;;;;;;;;;;;;;;1.07;100.00;102243.38;6215552;23;19967;-79
2022/12/03 04:16:00;;;;;;;;;;;;;;;1.07;100.00;102235.66;6215424;23;19931;-78
2022/12/03 04:18:43;;;;;;;;;;;;;;;1.07;100.00;102233.09;6215766;23;19916;-79
2022/12/03 04:23:53;;;;;;;;;;;;;;;1.09;100.00;102235.75;6215667;23;19954;-79
2022/12/03 04:29:02;;;;;;;;;;;;;;;1.07;100.00;102238.22;6214330;23;19995;-79
2022/12/03 04:36:55;;;;;;;;;;;;;;;1.05;100.00;102232.19;6214772;23;19919;-79
2022/12/03 04:39:20;;;;;;;;;;;;;;;1.09;100.00;102236.59;6215010;23;19916;-79
2022/12/03 04:41:45;;;;;;;;;;;;;;;1.07;100.00;102234.78;6215088;23;19912;-78
2022/12/03 04:46:55;;;;;;;;;;;;;;;1.06;100.00;102228.78;6215428;23;19935;-78
2022/12/03 04:49:20;;;;;;;;;;;;;;;1.07;100.00;102227.09;6214460;23;20320;-79
2022/12/03 04:51:45;;;;;;;;;;;;;;;1.05;100.00;102231.31;6215430;23;19911;-78
2022/12/03 04:54:10;;;;;;;;;;;;;;;1.03;100.00;102233.81;6215518;23;20054;-78
2022/12/03 04:56:35;;;;;;;;;;;;;;;1.06;100.00;102228.78;6214798;23;19918;-78
2022/12/03 04:59:01;;;;;;;;;;;;;;;1.04;100.00;102225.28;6215361;23;19916;-78
2022/12/03 05:01:26;;;;;;;;;;;;;;;1.04;100.00;102225.28;6215430;23;20317;-78
2022/12/03 05:03:51;;;;;;;;;;;;;;;1.09;100.00;102221.19;6214108;23;19919;-78
2022/12/03 05:06:16;;;;;;;;;;;;;;;1.06;100.00;102221.09;6215515;23;19912;-78
2022/12/03 05:08:41;;;;;;;;;;;;;;;1.05;100.00;102218.47;6215050;23;19983;-78
2022/12/03 05:11:07;;;;;;;;;;;;;;;1.07;100.00;102220.25;6214851;23;20338;-79
2022/12/03 05:13:32;;;;;;;;;;;;;;;1.05;100.00;102224.47;6215742;23;19912;-78
2022/12/03 05:15:57;;;;;;;;;;;;;;;1.07;100.00;102217.69;6214728;23;19970;-78
2022/12/03 05:18:22;;;;;;;;;;;;;;;1.02;100.00;102219.22;6215335;23;19999;-78
2022/12/03 05:20:47;;;;;;;;;;;;;;;1.14;100.00;102213.66;6215159;23;20247;-78
2022/12/03 05:23:13;;;;;;;;;;;;;;;1.05;100.00;102214.22;6214999;23;20400;-79
2022/12/03 05:25:41;;;;;;;;;;;;;;;1.03;100.00;102214.97;6215278;23;19919;-78
2022/12/03 05:28:07;;;;;;;;;;;;;;;1.04;100.00;102215.00;6215643;23;19983;-78
2022/12/03 05:30:32;;;;;;;;;;;;;;;1.12;100.00;102211.03;6214483;23;20322;-79
2022/12/03 05:32:57;;;;;;;;;;;;;;;1.02;100.00;102216.66;6214842;23;19916;-79
2022/12/03 05:35:23;;;;;;;;;;;;;;;1.06;100.00;102212.50;6215613;23;19964;-78
2022/12/03 05:37:48;;;;;;;;;;;;;;;1.02;100.00;102211.53;6214126;23;20231;-78
2022/12/03 05:40:14;;;;;;;;;;;;;;;1.01;100.00;102207.19;6214624;23;19947;-78
2022/12/03 05:42:55;;;;;;;;;;;;;;;1.01;100.00;102208.88;6213992;23;19912;-78
2022/12/03 05:45:22;;;;;;;;;;;;;;;1.10;100.00;102206.66;6213869;23;19912;-78
2022/12/03 05:47:47;;;;;;;;;;;;;;;1.02;100.00;102206.38;6215197;23;19927;-78
2022/12/03 05:50:12;;;;;;;;;;;;;;;1.01;100.00;102202.03;6215506;23;19991;-78
2022/12/03 05:52:37;;;;;;;;;;;;;;;1.04;100.00;102206.44;6214507;23;19936;-78
2022/12/03 05:55:03;;;;;;;;;;;;;;;1.02;100.00;102195.25;6215293;23;19958;-78
2022/12/03 05:57:28;;;;;;;;;;;;;;;1.06;100.00;102194.53;6215402;23;19912;-78
2022/12/03 05:59:53;;;;;;;;;;;;;;;1.02;100.00;102200.38;6213903;23;20324;-78
2022/12/03 06:02:19;;;;;;;;;;;;;;;1.02;100.00;102200.38;6215556;23;19939;-78
2022/12/03 06:04:44;;;;;;;;;;;;;;;1.02;100.00;102201.25;6215044;23;19999;-78
2022/12/03 06:07:09;;;;;;;;;;;;;;;1.05;100.00;102196.22;6214505;23;19912;-79
2022/12/03 06:09:34;;;;;;;;;;;;;;;1.03;100.00;102192.72;6215114;23;19974;-78
2022/12/03 06:11:59;;;;;;;;;;;;;;;1.01;100.00;102191.78;6215072;23;19912;-78
2022/12/03 06:14:25;;;;;;;;;;;;;;;1.02;100.00;102192.66;6214427;23;19922;-79
2022/12/03 06:16:50;;;;;;;;;;;;;;;1.03;100.00;102191.84;6215107;23;19912;-78
2022/12/03 06:19:15;;;;;;;;;;;;;;;1.03;100.00;102194.41;6215547;23;19912;-79
2022/12/03 06:21:40;;;;;;;;;;;;;;;1.01;100.00;102190.91;6216790;23;19919;-78
2022/12/03 06:24:05;;;;;;;;;;;;;;;1.01;100.00;102193.47;6216909;23;20214;-78
2022/12/03 06:26:30;;;;;;;;;;;;;;;1.01;100.00;102196.91;6216229;23;19947;-78
2022/12/03 06:28:56;;;;;;;;;;;;;;;0.99;100.00;102198.56;6216741;23;19912;-78
2022/12/03 06:31:21;;;;;;;;;;;;;;;1.00;100.00;102197.72;6216569;23;20214;-78
2022/12/03 06:33:47;;;;;;;;;;;;;;;0.99;100.00;102196.00;6216290;23;19936;-79
2022/12/03 06:36:12;;;;;;;;;;;;;;;0.99;100.00;102201.13;6217013;23;19916;-78
2022/12/03 06:38:37;;;;;;;;;;;;;;;1.03;100.00;102196.97;6216950;23;19965;-78
2022/12/03 06:41:02;;;;;;;;;;;;;;;1.01;100.00;102198.59;6215647;23;19911;-78
2022/12/03 06:43:29;;;;;;;;;;;;;;;0.99;100.00;102198.56;6216513;23;20312;-78
2022/12/03 06:45:54;;;;;;;;;;;;;;;0.99;100.00;102198.56;6216888;23;19919;-78
2022/12/03 06:48:20;;;;;;;;;;;;;;;0.97;100.00;102195.03;6215783;23;19912;-78
2022/12/03 06:50:45;;;;;;;;;;;;;;;0.97;100.00;102189.03;6216474;23;19912;-78
2022/12/03 06:53:10;;;;;;;;;;;;;;;0.97;100.00;102194.19;6216607;23;19912;-78
2022/12/03 06:55:35;;;;;;;;;;;;;;;0.99;100.00;102190.00;6216059;23;19912;-78
2022/12/03 06:58:00;;;;;;;;;;;;;;;0.98;100.00;102194.25;6216576;23;19912;-79
2022/12/03 07:00:26;;;;;;;;;;;;;;;0.96;100.00;102184.72;6216451;23;19974;-78
2022/12/03 07:02:51;;;;;;;;;;;;;;;0.97;100.00;102192.47;6215353;23;19947;-78
2022/12/03 07:05:16;;;;;;;;;;;;;;;0.94;100.00;102192.38;6216741;23;19916;-78
2022/12/03 07:07:41;;;;;;;;;;;;;;;0.95;100.00;102189.00;6215366;23;20279;-78
2022/12/03 07:10:07;;;;;;;;;;;;;;;0.93;100.00;102194.06;6215460;23;19912;-78
2022/12/03 07:12:32;;;;;;;;;;;;;;;0.94;100.00;102189.78;6215850;23;19912;-78
2022/12/03 07:14:57;;;;;;;;;;;;;;;0.96;100.00;102189.88;6216138;23;20261;-78
2022/12/03 07:17:22;;;;;;;;;;;;;;;0.97;100.00;102195.03;6215901;23;19974;-78
2022/12/03 07:19:48;;;;;;;;;;;;;;;0.94;100.00;102189.78;6215874;23;20324;-78
2022/12/03 07:22:13;;;;;;;;;;;;;;;0.96;100.00;102190.75;6216586;23;19912;-78
2022/12/03 07:24:38;;;;;;;;;;;;;;;0.96;100.00;102193.31;6215520;23;19912;-78
2022/12/03 07:27:03;;;;;;;;;;;;;;;0.92;100.00;102186.31;6216727;23;19916;-78
2022/12/03 07:29:28;;;;;;;;;;;;;;;0.95;100.00;102186.44;6216257;23;20338;-78
2022/12/03 07:31:53;;;;;;;;;;;;;;;0.93;100.00;102188.94;6215141;23;19916;-78
2022/12/03 07:34:19;;;;;;;;;;;;;;;0.96;100.00;102193.31;6216642;23;19951;-78
2022/12/03 07:36:44;;;;;;;;;;;;;;;0.94;100.00;102184.66;6215156;23;20371;-78
2022/12/03 07:39:09;;;;;;;;;;;;;;;0.94;100.00;102187.22;6216141;23;19912;-78
2022/12/03 07:41:34;;;;;;;;;;;;;;;0.97;100.00;102187.34;6216487;23;19965;-78
2022/12/03 07:43:59;;;;;;;;;;;;;;;0.94;100.00;102185.53;6215556;23;20257;-78
2022/12/03 07:46:25;;;;;;;;;;;;;;;0.94;100.00;102188.09;6215824;23;19978;-78
2022/12/03 07:48:50;;;;;;;;;;;;;;;0.96;100.00;102192.44;6216092;23;19919;-78
2022/12/03 07:51:15;;;;;;;;;;;;;;;0.97;100.00;102187.34;6215966;23;19975;-78
2022/12/03 07:53:40;;;;;;;;;;;;;;;0.95;100.00;102191.56;6215360;23;20357;-78
2022/12/03 07:56:06;;;;;;;;;;;;;;;0.97;100.00;102191.63;6216014;23;19912;-78
2022/12/03 07:58:31;;;;;;;;;;;;;;;0.97;100.00;102189.91;6215717;23;19912;-78
2022/12/03 08:00:56;;;;;;;;;;;;;;;0.99;100.00;102192.56;6215500;23;19916;-79
2022/12/03 08:03:22;;;;;;;;;;;;;;;1.00;100.00;102200.31;6215800;23;19990;-78
2022/12/03 08:05:47;;;;;;;;;;;;;;;1.02;100.00;102196.13;6215122;23;19972;-78
2022/12/03 08:08:12;;;;;;;;;;;;;;;1.04;100.00;102191.88;6215966;23;20214;-78
2022/12/03 08:10:37;;;;;;;;;;;;;;;1.08;100.00;102196.34;6216140;23;19912;-78
2022/12/03 08:13:05;;;;;;;;;;;;;;;1.07;100.00;102201.41;6214654;23;19912;-78
2022/12/03 08:15:30;;;;;;;;;;;;;;;1.08;100.00;102196.34;6215250;23;20269;-78
2022/12/03 08:17:57;;;;;;;;;;;;;;;1.09;100.00;102200.66;6215259;23;19919;-78
2022/12/03 08:20:24;;;;;;;;;;;;;;;1.09;100.00;102192.94;6214713;23;19912;-78
2022/12/03 08:22:50;;;;;;;;;;;;;;;1.08;100.00;102190.31;6214892;23;20248;-78
2022/12/03 08:25:15;;;;;;;;;;;;;;;1.10;100.00;102194.69;6214575;23;19919;-78
2022/12/03 08:27:41;;;;;;;;;;;;;;;1.09;100.00;102200.66;6214687;23;19986;-78
2022/12/03 08:30:06;;;;;;;;;;;;;;;1.13;100.00;102196.50;6215707;23;19985;-78
2022/12/03 08:32:31;;;;;;;;;;;;;;;1.14;100.00;102204.28;6216037;23;20316;-78
2022/12/03 08:34:57;;;;;;;;;;;;;;;1.12;100.00;102200.75;6215021;23;19978;-78
2022/12/03 08:37:22;;;;;;;;;;;;;;;1.16;100.00;102200.06;6216058;23;19912;-78
2022/12/03 08:39:48;;;;;;;;;;;;;;;1.22;100.00;102201.09;6215093;23;19947;-78
2022/12/03 08:42:42;;;;;;;;;;;;;;;1.26;100.00;102192.69;6214024;23;20362;-78
2022/12/03 08:45:26;;;;;;;;;;;;;;;1.31;100.00;102201.44;6215453;23;20331;-78
2022/12/03 08:47:54;;;;;;;;;;;;;;;1.34;100.00;102202.44;6213681;23;19966;-78
2022/12/03 08:50:26;;;;;;;;;;;;;;;1.37;100.00;102201.63;6214930;23;19908;-78
2022/12/03 08:52:52;;;;;;;;;;;;;;;1.40;100.00;102194.91;6215832;23;19912;-78
2022/12/03 08:55:33;;;;;;;;;;;;;;;1.44;100.00;102195.03;6214598;23;19977;-78
2022/12/03 08:57:58;;;;;;;;;;;;;;;1.47;100.00;102210.56;6214739;23;19916;-77
2022/12/03 09:00:24;;;;;;;;;;;;;;;1.42;100.00;102197.56;6214761;23;20260;-78
2022/12/03 09:02:51;;;;;;;;;;;;;;;1.44;100.00;102201.06;6214495;23;19916;-79
2022/12/03 09:05:27;;;;;;;;;;;;;;;1.47;100.00;102201.19;6215428;23;19995;-79
2022/12/03 09:07:52;;;;;;;;;;;;;;;1.42;100.00;102206.97;6214182;23;19958;-79
2022/12/03 09:10:17;;;;;;;;;;;;;;;1.40;100.00;102196.63;6213758;23;20499;-79
2022/12/03 09:12:42;;;;;;;;;;;;;;;1.35;100.00;102193.03;6214129;23;19998;-79
2022/12/03 09:15:07;;;;;;;;;;;;;;;1.32;100.00;102201.50;6214054;23;19912;-79
2022/12/03 09:17:35;;;;;;;;;;;;;;;1.30;100.00;102197.97;6215307;23;19912;-79
2022/12/03 09:20:00;;;;;;;;;;;;;;;1.32;100.00;102198.03;6215381;23;20058;-79
2022/12/03 09:22:26;;;;;;;;;;;;;;;1.29;100.00;102196.25;6214358;23;19962;-79
2022/12/03 09:24:51;;;;;;;;;;;;;;;1.29;100.00;102205.66;6214740;23;19912;-79
2022/12/03 09:27:16;;;;;;;;;;;;;;;1.30;100.00;102194.53;6214918;23;20341;-78
2022/12/03 09:29:41;;;;;;;;;;;;;;;1.29;100.00;102198.81;6213260;23;20328;-78
2022/12/03 09:32:07;;;;;;;;;;;;;;;1.28;100.00;102197.06;6215018;23;20027;-79
2022/12/03 09:34:33;;;;;;;;;;;;;;;1.27;100.00;102199.56;6215625;23;19991;-79
2022/12/03 09:36:58;;;;;;;;;;;;;;;1.27;100.00;102200.44;6214506;23;20249;-78
2022/12/03 09:39:23;;;;;;;;;;;;;;;1.31;100.00;102198.88;6215650;23;19999;-78
2022/12/03 09:41:49;;;;;;;;;;;;;;;1.27;100.00;102207.28;6213470;23;20213;-78
2022/12/03 09:44:14;;;;;;;;;;;;;;;1.25;100.00;102196.09;6213451;23;19943;-79
2022/12/03 09:46:40;;;;;;;;;;;;;;;1.26;100.00;102193.56;6214522;23;19912;-78
2022/12/03 09:49:06;;;;;;;;;;;;;;;1.27;100.00;102194.41;6215678;23;19908;-79
2022/12/03 09:51:33;;;;;;;;;;;;;;;1.21;100.00;102183.91;6213921;23;19912;-78
2022/12/03 09:53:59;;;;;;;;;;;;;;;1.23;100.00;102184.88;6215072;23;19916;-78
2022/12/03 09:56:24;;;;;;;;;;;;;;;1.19;100.00;102188.16;6217644;23;19991;-78
2022/12/03 09:58:49;;;;;;;;;;;;;;;1.22;100.00;102190.84;6215932;23;19995;-78
2022/12/03 10:01:15;;;;;;;;;;;;;;;1.21;100.00;102178.78;6217134;23;19946;-80
2022/12/03 10:03:43;;;;;;;;;;;;;;;1.25;100.00;102181.53;6216040;23;19997;-78
2022/12/03 10:06:15;;;;;;;;;;;;;;;1.24;100.00;102181.47;6216607;23;19911;-78
2022/12/03 10:08:41;;;;;;;;;;;;;;;1.23;100.00;102187.44;6217022;23;19931;-78
2022/12/03 10:11:06;;;;;;;;;;;;;;;1.22;100.00;102185.69;6217085;23;20317;-78
2022/12/03 10:13:33;;;;;;;;;;;;;;;1.23;100.00;102182.28;6216241;23;20342;-79
2022/12/03 10:15:59;;;;;;;;;;;;;;;1.25;100.00;102180.66;6216289;23;19955;-78
2022/12/03 10:18:25;;;;;;;;;;;;;;;1.22;100.00;102166.00;6215666;23;19916;-77
2022/12/03 10:20:51;;;;;;;;;;;;;;;1.21;100.00;102168.50;6215934;23;19911;-78
2022/12/03 10:23:24;;;;;;;;;;;;;;;1.24;100.00;102166.91;6216761;23;19935;-78
2022/12/03 10:25:59;;;;;;;;;;;;;;;1.38;100.00;102159.72;6215439;23;19987;-78
2022/12/03 10:28:35;;;;;;;;;;;;;;;1.28;100.00;102160.22;6216444;23;20034;-78
2022/12/03 10:31:02;;;;;;;;;;;;;;;1.31;100.00;102152.63;6214644;23;19916;-78
2022/12/03 10:33:28;;;;;;;;;;;;;;;1.27;100.00;102154.19;6212924;23;20321;-78
2022/12/03 10:35:53;;;;;;;;;;;;;;;1.26;100.00;102156.72;6216361;23;20394;-78
2022/12/03 10:38:21;;;;;;;;;;;;;;;1.24;100.00;102142.94;6216346;23;19912;-78
2022/12/03 10:40:46;;;;;;;;;;;;;;;1.26;100.00;102143.88;6212602;23;19918;-78
2022/12/03 10:43:11;;;;;;;;;;;;;;;1.25;100.00;102140.44;6217011;23;19940;-79
2022/12/03 10:45:37;;;;;;;;;;;;;;;1.23;100.00;102131.78;6215690;23;20225;-78
2022/12/03 10:48:10;;;;;;;;;;;;;;;1.26;100.00;102125.88;6214949;23;20210;-80
2022/12/03 10:50:35;;;;;;;;;;;;;;;1.25;99.93;102125.00;6216208;23;19919;-78
2022/12/03 10:53:01;;;;;;;;;;;;;;;1.32;100.00;102126.09;6216113;23;19912;-78
2022/12/03 10:55:27;;;;;;;;;;;;;;;1.25;99.74;102124.16;6214744;23;20343;-78
2022/12/03 10:57:52;;;;;;;;;;;;;;;1.28;100.00;102116.56;6216398;23;19970;-78
2022/12/03 11:00:18;;;;;;;;;;;;;;;1.33;100.00;102113.28;6216651;23;20335;-78
2022/12/03 11:02:44;;;;;;;;;;;;;;;1.34;100.00;102114.16;6215285;23;19919;-78
2022/12/03 11:05:17;;;;;;;;;;;;;;;1.34;100.00;102104.78;6216491;23;19919;-78
2022/12/03 11:07:43;;;;;;;;;;;;;;;1.37;99.83;102111.72;6215797;23;19969;-78
2022/12/03 11:10:12;;;;;;;;;;;;;;;1.42;100.00;102109.31;6216218;23;19943;-78
2022/12/03 11:12:37;;;;;;;;;;;;;;;1.47;100.00;102103.50;6215282;23;19912;-78
2022/12/03 11:15:06;;;;;;;;;;;;;;;1.53;100.00;102105.41;6215310;23;19919;-78
2022/12/03 11:17:45;;;;;;;;;;;;;;;1.51;100.00;102100.22;6215542;23;19985;-78
2022/12/03 11:20:12;;;;;;;;;;;;;;;1.53;99.04;102101.13;6216024;23;20346;-78
2022/12/03 11:22:39;;;;;;;;;;;;;;;1.49;99.26;102099.28;6214941;23;19988;-77
2022/12/03 11:25:23;;;;;;;;;;;;;;;1.50;100.00;102100.16;6216238;23;19920;-78
2022/12/03 11:28:07;;;;;;;;;;;;;;;1.44;98.40;102095.69;6214776;23;19934;-78
2022/12/03 11:30:47;;;;;;;;;;;;;;;1.39;99.12;102092.09;6215537;23;19922;-78
2022/12/03 11:33:21;;;;;;;;;;;;;;;1.46;100.00;102082.88;6216028;23;19912;-78
2022/12/03 11:36:02;;;;;;;;;;;;;;;1.52;100.00;102077.97;6215592;23;19911;-77
2022/12/03 11:38:36;;;;;;;;;;;;;;;1.46;100.00;102077.75;6215898;23;19912;-77
2022/12/03 11:41:18;;;;;;;;;;;;;;;1.46;100.00;102082.88;6216265;23;19919;-77
2022/12/03 11:43:54;;;;;;;;;;;;;;;1.47;100.00;102080.38;6215404;23;19966;-77
2022/12/03 11:46:40;;;;;;;;;;;;;;;1.47;99.82;102064.97;6215904;23;19983;-78
2022/12/03 11:49:24;;;;;;;;;;;;;;;1.44;99.62;102062.28;6215653;23;19912;-77
2022/12/03 11:51:49;;;;;;;;;;;;;;;1.40;99.59;102058.72;6215264;23;19966;-80
2022/12/03 11:54:16;;;;;;;;;;;;;;;1.40;99.41;102056.16;6216328;23;20287;-79
2022/12/03 11:56:46;;;;;;;;;;;;;;;1.39;98.44;102059.56;6215894;23;19912;-79
2022/12/03 11:59:14;;;;;;;;;;;;;;;1.41;99.25;102054.47;6216315;23;19911;-79
2022/12/03 12:01:40;;;;;;;;;;;;;;;1.41;100.00;102059.63;6215035;23;19920;-79
2022/12/03 12:04:25;;;;;;;;;;;;;;;1.46;99.32;102059.75;6215286;23;19922;-79
2022/12/03 12:06:51;;;;;;;;;;;;;;;1.34;99.91;102060.22;6215267;23;19919;-78
2022/12/03 12:09:36;;;;;;;;;;;;;;;1.34;99.22;102055.06;6215899;23;19931;-79
2022/12/03 12:12:16;;;;;;;;;;;;;;;1.38;98.85;102047.53;6213914;23;19916;-78
2022/12/03 12:14:41;;;;;;;;;;;;;;;1.38;99.63;102059.50;6215619;23;20301;-79
2022/12/03 12:17:26;;;;;;;;;;;;;;;1.40;100.00;102050.13;6216138;23;19912;-79
2022/12/03 12:20:09;;;;;;;;;;;;;;;1.43;99.33;102050.25;6214269;23;20217;-78
2022/12/03 12:22:34;;;;;;;;;;;;;;;1.42;99.10;102048.50;6215873;23;19916;-79
2022/12/03 12:25:00;;;;;;;;;;;;;;;1.40;100.00;102047.56;6214942;23;19954;-79
2022/12/03 12:27:30;;;;;;;;;;;;;;;1.44;99.12;102043.41;6212845;23;19915;-79
2022/12/03 12:29:57;;;;;;;;;;;;;;;1.41;99.12;102036.50;6215338;23;19962;-80
2022/12/03 12:32:49;;;;;;;;;;;;;;;1.34;99.22;102026.81;6179007;23;20117;-79
2022/12/03 12:35:22;;;;;;;;;;;;;;;1.40;99.81;102025.31;6215759;23;19912;-79
2022/12/03 12:37:49;;;;;;;;;;;;;;;1.39;99.88;102017.56;6214688;23;20385;-80
2022/12/03 12:40:16;;;;;;;;;;;;;;;1.38;99.81;102014.13;6214273;23;19970;-79
2022/12/03 12:42:51;;;;;;;;;;;;;;;1.44;99.01;102013.47;6214912;23;19922;-79
2022/12/03 12:45:35;;;;;;;;;;;;;;;1.41;98.71;102013.38;6216219;23;19915;-80
2022/12/03 12:48:13;;;;;;;;;;;;;;;1.36;98.95;102005.50;6213412;23;19955;-79
2022/12/03 12:50:39;;;;;;;;;;;;;;;1.38;97.80;102008.13;6214310;23;19918;-79
2022/12/03 12:53:23;;;;;;;;;;;;;;;1.39;98.70;102002.16;6214832;23;19939;-79